Elizabethtown, NC

6:07 PM EDT on September 19, 2017 (GMT -0400)
Elizabethtown

Weather History for KEYF - February, 2013

Change the Weather History Date:

Wednesday, February 13, 2013

  Actual Average (KILM) Record (KILM)
Temperature  
Mean Temperature 52 °F -  
Max Temperature 56 °F 57 °F 78 °F (1927)
Min Temperature 47 °F 34 °F 10 °F (1899)
Degree Days  
Heating Degree Days 14    
Growing Degree Days 2 (Base 50)    
Moisture  
Dew Point 49 °F    
Average Humidity 95    
Maximum Humidity 100    
Minimum Humidity 76    
Precipitation  
Precipitation 0.27 in - - ()
Sea Level Pressure  
Sea Level Pressure 29.78 in    
Wind  
Wind Speed 3 mph (WSW)    
Max Wind Speed 15 mph    
Max Gust Speed 23 mph    
Visibility 6 miles    
Events Rain    
Averages and records for this station are not official NWS values.
T = Trace of Precipitation, MM = Missing Value Source: NWS Daily Summary

Daily Weather History Graph

Daily Weather History Graph

Search for Another Location

Airport or City:

Trip Planner

Search our weather history database for the weather conditions in past years. The results will help you decide how hot, cold, wet, or windy it might be!

Date:

Astronomy

Feb. 13, 2013 Rise Set
Actual Time 7:00 AM EST 5:55 PM EST
Civil Twilight 6:34 AM EST 6:20 PM EST
Nautical Twilight 6:05 AM EST 6:50 PM EST
Astronomical Twilight 5:35 AM EST 7:19 PM EST
Moon 8:40 AM EST (2/13) 9:42 PM EST (2/13)
Length of Visible Light 11h 46m
Length of Day
10h 54m
Waxing Crescent, 13% of the Moon is Illuminated
Feb 13
Waxing Crescent
Feb 17
First Quarter
Feb 25
Full
Mar 4
Last Quarter
Mar 11
New

Hourly Weather History & Observations

Time (EST) Temp. Dew Point Humidity Pressure Visibility Wind Dir Wind Speed Gust Speed Precip Events Conditions
12:15 AM 50.4 °F 50.0 °F 99% 29.99 in 7.0 mi Calm Calm - 0.02 in Rain Light Rain
12:35 AM 50.0 °F 49.5 °F 98% 29.95 in 7.0 mi Calm Calm - 0.05 in Rain Rain
12:55 AM 49.5 °F 49.1 °F 99% 29.92 in 10.0 mi East 3.5 mph - 0.06 in Rain Light Rain
1:15 AM 49.5 °F 48.7 °F 97% 29.93 in 10.0 mi Calm Calm - 0.01 in Rain Light Rain
1:35 AM 49.3 °F 48.4 °F 97% 29.90 in 10.0 mi Calm Calm - 0.02 in Rain Rain
2:15 AM 49.1 °F 48.4 °F 97% 29.89 in 10.0 mi Calm Calm - N/A   Overcast
2:35 AM 49.1 °F 48.6 °F 98% 29.88 in 10.0 mi Calm Calm - N/A Rain Rain
2:55 AM 49.1 °F 48.2 °F 97% 29.86 in 10.0 mi ESE 3.5 mph - 0.01 in Rain Rain
3:15 AM 49.1 °F 48.4 °F 97% 29.86 in 5.0 mi Calm Calm - 0.02 in Rain Rain
3:35 AM 48.9 °F 48.4 °F 98% 29.86 in 3.0 mi Calm Calm - 0.08 in Rain Rain
3:55 AM 48.9 °F 48.6 °F 99% 29.82 in 7.0 mi Calm Calm - 0.09 in   Mostly Cloudy
4:15 AM 48.6 °F 48.4 °F 99% 29.81 in 7.0 mi NNE 3.5 mph - N/A   Drizzle
4:35 AM 48.2 °F 48.0 °F 99% 29.80 in 7.0 mi Calm Calm - 0.01 in   Overcast
4:55 AM 47.7 °F 47.5 °F 99% 29.81 in 10.0 mi Calm Calm - 0.01 in   Overcast
5:15 AM 47.3 °F 47.3 °F 100% 29.81 in 4.0 mi Calm Calm - N/A Rain Heavy Rain
5:35 AM 47.3 °F 46.9 °F 99% 29.82 in 4.0 mi Calm Calm - 0.02 in   Heavy Drizzle
5:55 AM 47.3 °F 46.9 °F 99% 29.82 in 3.0 mi East 3.5 mph - 0.03 in   Heavy Drizzle
6:15 AM 47.3 °F 47.3 °F 100% 29.81 in 4.0 mi ESE 3.5 mph - 0.01 in   Heavy Drizzle
6:35 AM 47.5 °F 47.5 °F 100% 29.80 in 3.0 mi East 4.6 mph - 0.02 in   Drizzle
6:55 AM 47.7 °F 47.7 °F 100% 29.81 in 4.0 mi Calm Calm - 0.02 in   Drizzle
7:15 AM 47.5 °F 47.5 °F 100% 29.79 in 3.0 mi ENE 5.8 mph - 0.01 in   Drizzle
7:35 AM 47.3 °F 47.3 °F 100% 29.81 in 2.5 mi Calm Calm - 0.01 in   Drizzle
7:55 AM 47.3 °F 47.3 °F 100% 29.80 in 2.5 mi Calm Calm - 0.01 in   Drizzle
8:15 AM 47.5 °F 47.5 °F 100% 29.79 in 1.5 mi Calm Calm - 0.01 in   Drizzle
8:35 AM 47.3 °F 47.3 °F 100% 29.81 in 1.2 mi Calm Calm - 0.01 in   Drizzle
8:55 AM 47.3 °F 47.3 °F 100% 29.81 in 1.2 mi Calm Calm - 0.01 in   Drizzle
9:15 AM 47.7 °F 47.7 °F 100% 29.81 in 2.0 mi Calm Calm - 0.01 in   Drizzle
9:35 AM 47.7 °F 47.7 °F 100% 29.81 in 2.5 mi Calm Calm - 0.01 in   Light Drizzle
9:55 AM 48.0 °F 48.0 °F 100% 29.80 in 2.0 mi Calm Calm - 0.01 in   Overcast
10:15 AM 48.2 °F 48.2 °F 100% 29.78 in 3.0 mi Calm Calm - N/A   Overcast
10:35 AM 48.6 °F 48.6 °F 100% 29.76 in 5.0 mi Calm Calm - N/A   Overcast
11:15 AM 48.6 °F 48.6 °F 100% 29.77 in 4.0 mi Calm Calm - N/A   Overcast
11:35 AM 48.6 °F 48.6 °F 100% 29.74 in 2.5 mi Calm Calm - N/A   Overcast
11:55 AM 48.6 °F 48.6 °F 100% 29.75 in 2.0 mi Calm Calm - N/A   Overcast
12:15 PM 49.1 °F 49.1 °F 100% 29.74 in 2.5 mi Calm Calm - N/A   Overcast
12:35 PM 49.1 °F 49.1 °F 100% 29.73 in 1.5 mi Calm Calm - N/A   Overcast
12:55 PM 49.5 °F 49.5 °F 100% 29.69 in 1.5 mi SSE 3.5 mph - N/A   Overcast
1:15 PM 50.0 °F 50.0 °F 100% 29.72 in 1.8 mi Calm Calm - N/A   Overcast
1:35 PM 50.4 °F 50.4 °F 100% 29.68 in 1.2 mi SSE 4.6 mph - N/A   Overcast
1:55 PM 51.4 °F 51.4 °F 100% 29.70 in 1.2 mi WSW 3.5 mph - N/A   Overcast
2:15 PM 52.2 °F 52.2 °F 100% 29.67 in 1.0 mi SSW 8.1 mph - N/A   Overcast
2:35 PM 52.7 °F 52.7 °F 100% 29.69 in 2.0 mi SW 4.6 mph - N/A Rain Light Rain
2:55 PM 53.4 °F 53.4 °F 100% 29.63 in 2.0 mi South 6.9 mph - N/A   Overcast
3:15 PM 54.5 °F 54.5 °F 100% 29.67 in 3.0 mi SW 9.2 mph - N/A   Overcast
3:35 PM 55.6 °F 55.6 °F 100% 29.66 in 5.0 mi SW 8.1 mph - N/A   Overcast
3:55 PM 56.1 °F 56.1 °F 100% 29.68 in 7.0 mi WSW 10.4 mph 18.4 mph N/A Rain Light Rain
4:15 PM 56.7 °F 55.4 °F 96% 29.66 in 10.0 mi SW 9.2 mph 18.4 mph N/A   Overcast
4:35 PM 56.8 °F 54.7 °F 92% 29.67 in 10.0 mi WSW 8.1 mph - N/A   Overcast
4:55 PM 56.8 °F 53.6 °F 89% 29.67 in 10.0 mi WSW 11.5 mph 17.3 mph N/A   Mostly Cloudy
5:15 PM 56.7 °F 52.5 °F 86% 29.70 in 10.0 mi West 12.7 mph 21.9 mph N/A   Overcast
5:35 PM 56.5 °F 51.6 °F 84% 29.70 in 10.0 mi WSW 10.4 mph 19.6 mph N/A   Mostly Cloudy
5:55 PM 55.9 °F 51.1 °F 84% 29.73 in 10.0 mi West 9.2 mph 16.1 mph N/A   Mostly Cloudy
6:15 PM 55.6 °F 50.9 °F 84% 29.68 in 10.0 mi WSW 5.8 mph - N/A Rain Rain
6:35 PM 54.5 °F 50.4 °F 86% 29.72 in 10.0 mi WSW 11.5 mph 18.4 mph N/A   Light Drizzle
6:55 PM 54.7 °F 47.8 °F 78% 29.74 in 10.0 mi WSW 15.0 mph 23.0 mph N/A Rain Light Rain
7:15 PM 54.1 °F 46.8 °F 76% 29.73 in 10.0 mi WSW 11.5 mph 19.6 mph N/A   Overcast
7:35 PM 54.0 °F 46.6 °F 76% 29.73 in 10.0 mi WSW 9.2 mph 16.1 mph N/A   Overcast
7:55 PM 54.0 °F 47.1 °F 78% 29.75 in 10.0 mi West 11.5 mph 18.4 mph N/A   Overcast
8:15 PM 53.6 °F 47.3 °F 79% 29.75 in 10.0 mi West 9.2 mph 16.1 mph N/A   Scattered Clouds
8:35 PM 53.1 °F 47.3 °F 81% 29.75 in 10.0 mi West 6.9 mph - N/A   Scattered Clouds
8:55 PM 52.3 °F 47.7 °F 84% 29.76 in 10.0 mi West 9.2 mph 17.3 mph N/A   Clear
9:15 PM 52.2 °F 48.4 °F 87% 29.80 in 10.0 mi WSW 9.2 mph - N/A   Clear
9:35 PM 52.2 °F 48.9 °F 89% 29.78 in 10.0 mi WSW 9.2 mph - N/A   Clear
9:55 PM 51.1 °F 48.4 °F 90% 29.79 in 10.0 mi WSW 6.9 mph - N/A   Clear
10:15 PM 50.9 °F 48.6 °F 92% 29.79 in 10.0 mi West 8.1 mph - N/A   Clear
10:35 PM 50.4 °F 48.4 °F 93% 29.81 in 10.0 mi WSW 5.8 mph - N/A   Clear
10:55 PM 50.4 °F 48.6 °F 94% 29.81 in 10.0 mi West 5.8 mph - N/A   Scattered Clouds
11:15 PM 50.4 °F 48.9 °F 95% 29.80 in 10.0 mi West 5.8 mph - N/A   Scattered Clouds
11:35 PM 50.4 °F 48.7 °F 94% 29.83 in 10.0 mi West 8.1 mph - N/A   Clear
11:55 PM 50.2 °F 48.2 °F 93% 29.83 in 10.0 mi West 8.1 mph - N/A   Clear